Time;durP1;ratioP1;P1;durP2;ratioP2;P2;SDS_P1;SDS_P2;PMS_P1;PMS_P2;Temp;Humidity;BMP_temperature;BMP_pressure;BME280_temperature;BME280_humidity;BME280_pressure;Samples;Min_cycle;Max_cycle;Signal;HPM_P1;HPM_P2
2023/02/11 00:00:23;;;;;;;59.50;37.00;;;-2.20;93.40;;;-2.75;83.21;99882.50;5047514;28;20490;-74
2023/02/11 00:02:50;;;;;;;54.63;36.57;;;-2.20;93.90;;;-2.71;83.26;99890.19;5054472;28;21059;-73
2023/02/11 00:05:18;;;;;;;64.87;40.47;;;-2.30;93.90;;;-3.11;83.87;99843.84;5039301;28;20451;-74
2023/02/11 00:07:47;;;;;;;58.03;40.60;;;-2.30;93.40;;;-2.83;84.48;99882.03;5064602;28;20806;-75
2023/02/11 00:10:14;;;;;;;63.60;40.87;;;-2.30;94.20;;;-2.79;84.26;99883.59;5047929;28;20466;-75
2023/02/11 00:12:42;;;;;;;64.17;39.93;;;-2.30;94.00;;;-2.78;84.43;99894.09;5083117;28;20446;-75
2023/02/11 00:15:10;;;;;;;64.57;38.90;;;-2.30;94.60;;;-2.50;83.34;99884.63;5064444;28;20795;-74
2023/02/11 00:17:37;;;;;;;61.73;39.27;;;-2.10;95.60;;;-2.55;82.76;99846.97;5030828;28;21180;-74
2023/02/11 00:20:06;;;;;;;61.70;37.97;;;-1.80;92.40;;;-2.43;82.36;99861.31;5073902;28;20478;-75
2023/02/11 00:22:33;;;;;;;63.10;39.53;;;-1.70;91.20;;;-2.37;82.08;99866.25;5043431;28;20484;-74
2023/02/11 00:25:02;;;;;;;60.87;39.80;;;-1.60;90.50;;;-2.35;82.02;99853.78;5064672;28;20544;-74
2023/02/11 00:27:30;;;;;;;63.07;39.53;;;-1.50;90.00;;;-2.20;81.94;99867.06;5049926;28;20545;-74
2023/02/11 00:29:59;;;;;;;62.37;38.30;;;-1.50;88.40;;;-2.44;81.19;99838.41;5044792;28;20470;-75
2023/02/11 00:32:26;;;;;;;60.87;40.03;;;-1.50;87.90;;;-2.37;81.74;99849.50;5048118;28;20567;-73
2023/02/11 00:34:55;;;;;;;71.40;40.90;;;-1.50;88.50;;;-2.32;81.28;99845.66;5046867;28;20911;-75
2023/02/11 00:37:22;;;;;;;61.40;36.13;;;-1.50;88.00;;;-2.25;81.21;99855.91;5048416;28;20461;-73
2023/02/11 00:39:50;;;;;;;62.33;38.50;;;-1.60;87.60;;;-2.22;80.67;99855.72;5045524;28;20502;-73
2023/02/11 00:42:19;;;;;;;55.83;35.80;;;-1.50;87.30;;;-2.22;80.65;99853.06;5043405;28;20477;-73
2023/02/11 00:44:47;;;;;;;56.47;37.00;;;-1.50;87.30;;;-2.17;80.96;99861.63;5043272;28;20943;-74
2023/02/11 00:47:16;;;;;;;59.90;35.47;;;-1.50;87.30;;;-2.71;80.62;99779.03;5049666;28;20501;-76
2023/02/11 00:49:45;;;;;;;56.07;35.50;;;-1.60;87.80;;;-2.29;80.58;99845.47;5048855;28;20521;-75
2023/02/11 00:52:12;;;;;;;58.07;36.53;;;-1.60;87.20;;;-2.19;80.28;99860.84;5047360;28;20502;-74
2023/02/11 00:54:41;;;;;;;54.40;37.60;;;-1.60;87.40;;;-2.08;80.50;99861.06;5048608;28;20443;-74
2023/02/11 00:57:08;;;;;;;58.40;36.53;;;-1.60;87.80;;;-2.32;80.10;99819.19;5082100;28;20454;-74
2023/02/11 00:59:37;;;;;;;55.13;36.37;;;-1.50;87.00;;;-2.15;80.08;99843.84;5070967;28;20476;-75
2023/02/11 01:02:06;;;;;;;62.03;37.07;;;-1.50;86.90;;;-2.09;79.86;99859.34;5048793;28;20464;-76
2023/02/11 01:04:33;;;;;;;62.27;38.00;;;-1.40;86.40;;;-2.19;79.90;99837.03;5046860;28;20515;-73
2023/02/11 01:07:00;;;;;;;55.80;35.37;;;-1.50;86.30;;;-2.11;80.12;99852.47;5046440;28;20481;-73
2023/02/11 01:09:29;;;;;;;58.80;35.33;;;-1.50;86.30;;;-2.11;79.49;99826.81;5045488;28;20449;-74
2023/02/11 01:11:56;;;;;;;56.40;35.73;;;-1.50;86.70;;;-2.01;78.91;99835.94;5053023;28;20984;-76
2023/02/11 01:14:24;;;;;;;60.30;34.97;;;-1.40;85.90;;;-1.97;78.66;99841.91;5063401;28;20453;-76
2023/02/11 01:16:53;;;;;;;53.37;35.27;;;-1.40;85.70;;;-2.01;79.39;99841.25;5059964;28;20471;-75
2023/02/11 01:19:20;;;;;;;58.13;35.93;;;-1.50;85.30;;;-2.06;79.06;99834.50;5042322;28;20557;-77
2023/02/11 01:21:48;;;;;;;59.63;37.07;;;-1.50;86.90;;;-2.07;79.38;99827.50;5047565;28;21129;-76
2023/02/11 01:24:15;;;;;;;56.67;35.20;;;-1.60;85.90;;;-2.07;79.16;99841.56;5048575;28;20553;-75
2023/02/11 01:26:42;;;;;;;56.97;35.70;;;-1.60;86.30;;;-2.06;80.02;99837.16;5044088;28;20458;-75
2023/02/11 01:29:10;;;;;;;51.60;33.97;;;-1.60;86.80;;;-2.12;79.68;99827.75;5055677;28;20825;-75
2023/02/11 01:31:37;;;;;;;54.63;35.00;;;-1.70;86.70;;;-2.10;80.03;99831.16;5045825;28;20954;-74
2023/02/11 01:34:08;;;;;;;55.43;35.17;;;-1.70;87.70;;;-2.19;79.67;99818.47;5052176;28;20447;-74
2023/02/11 01:36:36;;;;;;;55.00;34.90;;;-1.70;87.90;;;-1.97;79.48;99822.50;5053915;28;20443;-75
2023/02/11 01:39:03;;;;;;;60.93;35.70;;;-1.60;88.80;;;-2.35;79.57;99779.66;5069509;28;20464;-75
2023/02/11 01:41:31;;;;;;;50.90;35.37;;;-1.60;87.70;;;-2.20;79.47;99796.44;5046364;28;20950;-76
2023/02/11 01:43:58;;;;;;;56.37;35.17;;;-1.40;86.30;;;-2.00;78.98;99820.88;5049512;28;20494;-75
2023/02/11 01:46:33;;;;;;;54.60;34.57;;;-1.50;86.00;;;-1.90;78.25;99837.09;5048768;28;20460;-77
2023/02/11 01:49:07;;;;;;;52.07;34.57;;;-1.50;85.70;;;-1.96;78.42;99827.72;5049903;28;20460;-76
2023/02/11 01:51:39;;;;;;;54.50;35.87;;;-1.50;86.00;;;-1.94;78.96;99817.00;5049606;28;20461;-76
2023/02/11 01:59:48;;;;;;;55.10;35.03;;;-1.50;85.90;;;-2.05;79.20;99810.53;5033185;28;20476;-76
2023/02/11 02:02:22;;;;;;;54.80;36.30;;;-1.60;86.70;;;-2.34;79.50;99781.34;5063973;28;20459;-78
2023/02/11 02:04:57;;;;;;;52.40;35.17;;;-1.60;86.70;;;-2.02;79.37;99807.75;5046910;28;20458;-75
2023/02/11 02:07:33;;;;;;;55.47;35.13;;;-1.60;88.20;;;-1.98;79.04;99803.09;5049911;28;20484;-75
2023/02/11 02:10:06;;;;;;;53.43;34.67;;;-1.60;87.30;;;-1.96;77.97;99781.81;5072163;28;20475;-73
2023/02/11 02:12:34;;;;;;;51.20;33.33;;;-1.40;85.60;;;-1.84;78.07;99794.34;5070713;28;20455;-74
2023/02/11 02:15:28;;;;;;;60.50;34.97;;;-1.40;84.60;;;-1.95;78.69;99786.16;5079273;28;20436;-74
2023/02/11 02:18:34;;;;;;;59.10;35.90;;;-1.40;83.90;;;-1.80;77.78;99781.75;5048767;28;20437;-76
2023/02/11 02:21:52;;;;;;;54.60;34.00;;;-1.30;84.30;;;-1.79;77.59;99776.34;5050317;28;20467;-73
2023/02/11 02:24:55;;;;;;;55.53;35.50;;;-1.30;83.30;;;-1.94;77.00;99729.59;5047990;28;20462;-75
2023/02/11 02:27:44;;;;;;;47.63;33.50;;;-1.20;83.00;;;-1.74;77.60;99769.00;5059654;28;20447;-76
2023/02/11 02:30:51;;;;;;;59.87;34.13;;;-1.20;82.80;;;-1.71;77.66;99779.41;5045934;28;20456;-75
2023/02/11 02:33:38;;;;;;;52.87;33.10;;;-1.20;83.50;;;-1.78;77.87;99756.84;5040227;28;20580;-76
2023/02/11 02:36:16;;;;;;;54.00;33.73;;;-1.20;82.90;;;-1.93;77.85;99737.44;5041848;28;20460;-76
2023/02/11 02:38:54;;;;;;;56.10;34.17;;;-1.20;82.40;;;-1.80;78.06;99752.59;5059775;28;20461;-76
2023/02/11 02:41:25;;;;;;;49.87;32.20;;;-1.20;82.40;;;-2.21;77.47;99674.69;5040161;28;20472;-76
2023/02/11 02:43:53;;;;;;;58.77;34.13;;;-1.20;82.50;;;-2.57;77.71;99640.59;5045482;28;20513;-74
2023/02/11 02:46:24;;;;;;;54.23;33.63;;;-1.30;82.90;;;-1.97;77.67;99740.38;5052804;28;20488;-75
2023/02/11 02:48:55;;;;;;;53.73;33.10;;;-1.30;82.60;;;-1.98;77.67;99746.63;5058667;28;20455;-74
2023/02/11 02:52:08;;;;;;;54.17;31.63;;;-1.30;82.30;;;-2.46;78.05;99678.81;5052060;28;20850;-74
2023/02/11 02:55:05;;;;;;;52.23;31.80;;;-1.40;82.40;;;-2.24;77.18;99685.47;5034624;28;20746;-74
2023/02/11 02:57:39;;;;;;;46.53;30.60;;;-1.30;82.70;;;-1.83;77.39;99756.28;5039091;28;20461;-75
2023/02/11 03:00:22;;;;;;;50.77;33.30;;;-1.30;82.70;;;-1.81;77.60;99757.03;5046011;28;20465;-75
2023/02/11 03:03:09;;;;;;;48.50;31.57;;;-1.30;83.00;;;-1.93;78.18;99763.06;5060162;28;20819;-73
2023/02/11 03:05:48;;;;;;;51.80;31.57;;;-1.30;82.30;;;-1.91;77.72;99742.63;5039658;28;20452;-74
2023/02/11 03:08:25;;;;;;;50.47;30.80;;;-1.20;82.50;;;-1.74;77.28;99762.81;5050794;28;20664;-75
2023/02/11 03:10:54;;;;;;;46.73;31.83;;;-1.20;81.90;;;-1.78;77.13;99759.50;5061601;28;20464;-77
2023/02/11 03:13:27;;;;;;;47.30;32.20;;;-1.10;81.20;;;-1.83;77.32;99751.00;5044650;28;20455;-75
2023/02/11 03:15:57;;;;;;;47.83;31.53;;;-1.10;81.50;;;-1.65;77.13;99766.72;5045738;28;20531;-74
2023/02/11 03:18:27;;;;;;;46.47;29.67;;;-1.10;81.70;;;-1.72;77.36;99758.28;5046033;28;21017;-75
2023/02/11 03:21:00;;;;;;;53.13;31.03;;;-1.00;81.20;;;-1.32;76.46;99768.22;5047744;28;21254;-75
2023/02/11 03:23:33;;;;;;;47.13;31.10;;;-0.90;81.10;;;-1.29;75.83;99762.69;5046546;28;20448;-74
2023/02/11 03:26:09;;;;;;;47.43;30.90;;;-0.80;80.70;;;-1.49;75.95;99743.59;5059044;28;20443;-74
2023/02/11 03:28:43;;;;;;;47.73;30.17;;;-0.80;80.60;;;-1.29;75.63;99774.19;5066203;28;20809;-75
2023/02/11 03:31:17;;;;;;;51.73;31.83;;;-0.70;80.20;;;-1.74;76.01;99710.69;5043313;28;20475;-75
2023/02/11 03:33:53;;;;;;;45.57;30.20;;;-0.70;79.90;;;-1.33;76.72;99771.81;5044848;28;20883;-75
2023/02/11 03:36:32;;;;;;;50.47;33.17;;;-0.70;80.20;;;-1.27;76.37;99762.63;5041181;28;20460;-75
2023/02/11 03:39:02;;;;;;;47.67;31.63;;;-0.70;80.00;;;-1.22;76.06;99758.72;5045879;28;20452;-73
2023/02/11 03:41:31;;;;;;;48.20;31.00;;;-0.60;80.30;;;-1.06;75.05;99752.44;5045691;28;20468;-72
2023/02/11 03:44:01;;;;;;;41.33;29.67;;;-0.50;79.20;;;-1.05;75.75;99752.34;5045720;28;20944;-73
2023/02/11 03:46:33;;;;;;;46.73;30.83;;;-0.50;79.40;;;-0.99;75.21;99753.75;5039374;28;20444;-72
2023/02/11 03:49:04;;;;;;;46.47;31.03;;;-0.40;79.30;;;-1.00;74.99;99747.59;5047346;28;20699;-72
2023/02/11 03:51:34;;;;;;;48.97;32.40;;;-0.40;78.80;;;-1.16;75.17;99741.56;5047212;28;20457;-72
2023/02/11 03:54:07;;;;;;;51.87;31.97;;;-0.50;78.60;;;-1.62;75.23;99676.38;5060933;28;20475;-73
2023/02/11 03:56:42;;;;;;;46.03;29.33;;;-0.50;78.60;;;-1.09;75.30;99734.06;5041009;28;20480;-73
2023/02/11 03:59:09;;;;;;;42.10;29.57;;;-0.50;78.50;;;-1.13;74.74;99741.38;5045359;28;20448;-73
2023/02/11 04:01:37;;;;;;;43.50;29.63;;;-0.50;78.40;;;-1.08;74.80;99735.78;5040425;28;20535;-72
2023/02/11 04:04:05;;;;;;;43.23;29.30;;;-0.50;78.20;;;-1.43;74.85;99687.53;5043328;28;20687;-72
2023/02/11 04:06:33;;;;;;;48.10;30.07;;;-0.50;78.50;;;-1.21;74.86;99718.00;5046142;28;21111;-72
2023/02/11 04:09:01;;;;;;;48.77;31.27;;;-0.50;78.40;;;-1.32;75.41;99725.78;5066275;28;20453;-71
2023/02/11 04:11:29;;;;;;;46.57;30.93;;;-0.50;78.40;;;-1.28;75.33;99716.69;5050695;28;20468;-71
2023/02/11 04:13:57;;;;;;;46.90;30.30;;;-0.60;78.70;;;-1.15;75.12;99757.38;5052271;28;20453;-72
2023/02/11 04:16:26;;;;;;;46.40;30.10;;;-0.60;78.90;;;-1.15;74.99;99727.34;5049936;28;20513;-72
2023/02/11 04:18:53;;;;;;;44.90;29.87;;;-0.60;79.00;;;-1.15;75.50;99754.72;5051058;28;20468;-72
2023/02/11 04:21:24;;;;;;;47.87;29.20;;;-0.60;79.20;;;-1.07;75.15;99740.13;5048557;28;20477;-73
2023/02/11 04:23:53;;;;;;;42.97;28.57;;;-0.50;79.00;;;-1.31;76.31;99730.13;5049346;28;20447;-73
2023/02/11 04:26:20;;;;;;;47.80;31.27;;;-0.60;79.20;;;-1.38;76.41;99715.56;5052208;28;20452;-72
2023/02/11 04:28:47;;;;;;;45.03;28.50;;;-0.60;79.40;;;-1.27;75.93;99713.09;5068847;28;20514;-72
2023/02/11 04:31:18;;;;;;;44.80;30.13;;;-0.70;79.40;;;-1.39;76.75;99701.44;5050571;28;20454;-72
2023/02/11 04:33:45;;;;;;;45.50;27.03;;;-0.70;79.90;;;-1.46;76.56;99677.09;5034302;28;20463;-73
2023/02/11 04:36:13;;;;;;;44.20;28.27;;;-0.70;80.10;;;-1.51;76.62;99673.91;5040191;28;20475;-72
2023/02/11 04:38:40;;;;;;;43.37;29.10;;;-0.70;80.00;;;-1.53;77.54;99675.81;5078726;28;20464;-73
2023/02/11 04:41:09;;;;;;;47.50;27.53;;;-0.70;79.90;;;-1.36;76.56;99687.13;5047025;28;20497;-74
2023/02/11 04:43:37;;;;;;;45.70;28.30;;;-0.60;80.20;;;-1.19;76.14;99700.16;5047484;28;20456;-71
2023/02/11 04:46:04;;;;;;;47.83;28.83;;;-0.60;80.10;;;-1.15;76.09;99699.00;5041273;28;20942;-73
2023/02/11 04:48:31;;;;;;;46.10;28.03;;;-0.50;80.40;;;-1.23;76.52;99681.88;5048575;28;20447;-72
2023/02/11 04:51:01;;;;;;;39.00;27.60;;;-0.50;79.70;;;-1.20;76.75;99676.41;5045567;28;20456;-73
2023/02/11 04:53:28;;;;;;;38.57;25.47;;;-0.50;79.70;;;-1.12;75.93;99690.00;5062305;28;20459;-74
2023/02/11 04:55:56;;;;;;;37.50;26.77;;;-0.40;79.50;;;-1.02;75.63;99687.59;5046876;28;20509;-72
2023/02/11 04:58:24;;;;;;;39.40;27.13;;;-0.40;79.40;;;-0.98;75.58;99667.91;5048978;28;20502;-73
2023/02/11 05:00:53;;;;;;;39.23;26.47;;;-0.30;79.50;;;-0.96;75.68;99667.78;5049437;28;20473;-73
2023/02/11 05:03:21;;;;;;;40.37;26.80;;;-0.20;79.20;;;-0.87;75.18;99641.47;5046912;28;20456;-72
2023/02/11 05:05:48;;;;;;;38.30;25.10;;;-0.20;79.20;;;-0.78;75.23;99689.63;5046428;28;20451;-71
2023/02/11 05:08:15;;;;;;;39.63;27.43;;;-0.20;78.90;;;-0.70;74.61;99679.31;5062107;28;20551;-73
2023/02/11 05:10:47;;;;;;;41.23;27.13;;;-0.20;78.80;;;-0.76;74.92;99670.00;5047726;28;21250;-74
2023/02/11 05:13:14;;;;;;;39.97;25.73;;;-0.20;79.00;;;-0.98;75.17;99653.78;5047857;28;20570;-72
2023/02/11 05:15:43;;;;;;;41.23;26.23;;;-0.10;78.90;;;-0.91;74.81;99645.31;5061922;28;20466;-73
2023/02/11 05:18:10;;;;;;;34.87;23.30;;;-0.10;79.00;;;-0.56;74.81;99699.66;5047267;28;20463;-73
2023/02/11 05:20:38;;;;;;;35.60;25.77;;;0.00;78.90;;;-0.40;74.35;99699.47;5075697;28;21426;-70
2023/02/11 05:23:08;;;;;;;40.03;25.53;;;0.10;78.70;;;-0.33;74.16;99692.78;5048154;28;20496;-73
2023/02/11 05:25:35;;;;;;;39.50;25.47;;;0.10;78.50;;;-0.90;74.18;99603.72;5054372;28;20595;-73
2023/02/11 05:28:04;;;;;;;38.83;24.57;;;0.10;78.80;;;-1.05;74.80;99597.59;5047019;28;20952;-73
2023/02/11 05:30:32;;;;;;;36.30;25.43;;;0.00;79.10;;;-0.49;74.70;99681.50;5044341;28;20998;-72
2023/02/11 05:33:01;;;;;;;36.70;24.67;;;0.10;79.20;;;-0.51;75.22;99656.88;5062945;28;20457;-71
2023/02/11 05:35:28;;;;;;;44.10;25.90;;;0.00;79.50;;;-0.65;75.49;99658.66;5044272;28;20465;-73
2023/02/11 05:37:56;;;;;;;38.27;24.50;;;0.00;79.50;;;-0.33;74.39;99681.31;5050502;28;20457;-72
2023/02/11 05:40:23;;;;;;;32.80;24.07;;;0.10;79.40;;;-0.32;74.73;99665.28;5080678;28;20440;-72
2023/02/11 05:42:51;;;;;;;39.43;25.50;;;0.10;79.30;;;-0.39;74.55;99636.56;5062880;28;20454;-72
2023/02/11 05:45:18;;;;;;;40.40;25.83;;;0.20;79.70;;;-0.18;74.32;99663.47;5048173;28;21042;-74
2023/02/11 05:47:45;;;;;;;38.20;26.03;;;0.30;79.40;;;-0.63;74.34;99574.44;5081297;28;20449;-75
2023/02/11 05:50:14;;;;;;;39.47;24.87;;;0.40;79.00;;;0.08;73.99;99652.84;5045237;28;21220;-73
2023/02/11 05:52:41;;;;;;;37.23;25.23;;;0.60;78.80;;;0.02;74.10;99642.63;5040677;28;20456;-74
2023/02/11 05:55:09;;;;;;;37.63;25.60;;;0.60;78.50;;;0.06;73.84;99655.59;5047826;28;20452;-74
2023/02/11 05:57:36;;;;;;;34.80;25.10;;;0.70;78.70;;;0.23;73.29;99667.72;5052631;28;20452;-74
2023/02/11 06:00:06;;;;;;;37.17;26.90;;;0.80;78.50;;;0.41;73.41;99678.00;5073251;28;20445;-74
2023/02/11 06:02:34;;;;;;;35.33;26.97;;;0.80;78.20;;;0.19;73.37;99650.25;5064511;28;20489;-75
2023/02/11 06:05:01;;;;;;;39.00;27.13;;;0.70;78.20;;;0.32;73.51;99668.00;5048650;28;20464;-73
2023/02/11 06:07:29;;;;;;;37.90;26.17;;;0.70;78.70;;;0.43;73.04;99676.06;5047523;28;20450;-75
2023/02/11 06:09:58;;;;;;;39.63;29.07;;;0.80;78.20;;;0.38;73.48;99664.88;5047625;28;20856;-73
2023/02/11 06:12:25;;;;;;;38.97;28.40;;;0.80;78.20;;;0.30;73.96;99659.28;5061539;28;20519;-73
2023/02/11 06:14:53;;;;;;;37.47;26.10;;;0.80;78.50;;;0.13;74.69;99648.88;5045007;28;20512;-73
2023/02/11 06:17:22;;;;;;;42.40;26.73;;;0.70;78.70;;;0.04;75.16;99646.88;5048378;28;20951;-72
2023/02/11 06:19:49;;;;;;;38.03;25.60;;;0.70;79.20;;;0.06;74.94;99650.28;5063293;28;20511;-74
2023/02/11 06:22:16;;;;;;;37.20;25.60;;;0.60;79.30;;;-0.38;74.86;99567.44;5046877;28;20464;-74
2023/02/11 06:24:45;;;;;;;39.27;25.53;;;0.60;79.30;;;0.02;75.27;99658.56;5040779;28;20452;-73
2023/02/11 06:27:12;;;;;;;36.13;23.67;;;0.60;79.60;;;0.01;75.21;99649.75;5042825;28;20480;-74
2023/02/11 06:29:40;;;;;;;36.40;24.20;;;0.50;80.00;;;-0.52;76.15;99580.81;5043336;28;20455;-76
2023/02/11 06:32:07;;;;;;;35.10;23.53;;;0.40;80.30;;;-0.12;76.29;99647.09;5057105;28;20464;-76
2023/02/11 06:34:34;;;;;;;35.40;22.70;;;0.30;81.20;;;-0.13;75.97;99640.09;5045186;28;20447;-74
2023/02/11 06:37:05;;;;;;;32.13;22.20;;;0.40;81.30;;;-0.11;75.72;99626.69;5044168;28;21082;-74
2023/02/11 06:39:34;;;;;;;33.50;22.53;;;0.40;81.40;;;-0.39;75.75;99586.13;5057847;28;20969;-77
2023/02/11 06:42:04;;;;;;;34.07;23.90;;;0.40;80.90;;;-0.14;76.63;99654.31;5057674;28;20482;-75
2023/02/11 06:44:31;;;;;;;32.37;22.43;;;0.30;81.30;;;-0.14;76.35;99630.41;5046085;28;20478;-73
2023/02/11 06:46:59;;;;;;;33.07;23.17;;;0.30;82.20;;;-0.16;76.48;99613.72;5046559;28;20453;-73
2023/02/11 06:49:27;;;;;;;35.20;23.40;;;0.30;82.30;;;-0.07;76.07;99654.75;5060504;28;20464;-83
2023/02/11 06:51:55;;;;;;;33.57;24.27;;;0.30;82.10;;;-1.81;76.05;99401.94;5043967;28;20543;-73
2023/02/11 06:54:23;;;;;;;34.33;22.80;;;0.20;82.40;;;-0.17;76.63;99657.19;5037354;28;20460;-72
2023/02/11 06:56:51;;;;;;;36.37;23.80;;;0.20;83.50;;;-0.29;77.23;99656.25;5045336;28;20556;-72
2023/02/11 06:59:22;;;;;;;34.60;23.17;;;0.20;84.00;;;-0.21;77.31;99658.38;5062013;28;20540;-73
2023/02/11 07:01:50;;;;;;;38.43;25.00;;;0.20;83.90;;;-0.75;77.52;99597.38;5059147;28;20565;-72
2023/02/11 07:04:18;;;;;;;32.93;23.67;;;0.30;84.70;;;-0.67;77.23;99577.38;5075887;28;20676;-74
2023/02/11 07:06:46;;;;;;;36.20;24.07;;;0.20;85.10;;;-0.06;76.45;99675.06;5057169;28;20475;-76
2023/02/11 07:09:14;;;;;;;31.20;22.53;;;0.30;84.60;;;-0.01;76.99;99686.19;5043827;28;20465;-70
2023/02/11 07:11:41;;;;;;;31.70;24.07;;;0.30;84.40;;;-0.05;77.19;99687.38;5048680;28;20468;-80
2023/02/11 07:14:12;;;;;;;30.67;22.90;;;0.30;84.30;;;-0.17;76.88;99655.38;5058271;28;20809;-80
2023/02/11 07:16:40;;;;;;;36.30;23.80;;;0.30;84.70;;;-0.23;76.43;99628.38;5051086;28;20940;-79
2023/02/11 07:19:08;;;;;;;32.60;23.00;;;0.30;85.00;;;0.18;76.42;99684.94;5054932;28;20449;-78
2023/02/11 07:21:35;;;;;;;34.47;23.47;;;0.40;83.90;;;0.21;76.32;99676.75;5055432;28;20491;-76
2023/02/11 07:24:06;;;;;;;32.67;22.80;;;0.50;83.90;;;-0.13;76.32;99602.88;5050391;28;20648;-78
2023/02/11 07:26:34;;;;;;;37.37;24.27;;;0.50;83.90;;;0.49;75.62;99678.28;5041112;28;20852;-73
2023/02/11 07:29:01;;;;;;;38.13;24.83;;;0.70;84.00;;;0.44;75.63;99648.50;5058571;28;20944;-75
2023/02/11 07:31:29;;;;;;;38.10;24.70;;;0.80;83.20;;;0.63;75.11;99629.41;5058507;28;20460;-77
2023/02/11 07:34:01;;;;;;;31.93;22.53;;;1.00;83.50;;;1.13;74.59;99674.53;5059251;28;20495;-77
2023/02/11 07:36:32;;;;;;;36.23;23.23;;;1.30;82.60;;;1.45;73.29;99673.09;5046924;28;20855;-77
2023/02/11 07:39:00;;;;;;;31.00;22.17;;;1.60;81.10;;;1.65;73.17;99674.25;5040401;28;20784;-78
2023/02/11 07:41:28;;;;;;;29.73;21.67;;;1.80;80.40;;;1.91;71.70;99660.72;5047650;28;20499;-79
2023/02/11 07:43:55;;;;;;;29.90;22.67;;;2.10;79.40;;;2.32;70.57;99657.56;5050314;28;20461;-75
2023/02/11 07:46:26;;;;;;;27.33;20.83;;;2.50;78.10;;;1.87;69.54;99583.78;5050099;28;20449;-77
2023/02/11 07:48:53;;;;;;;26.33;20.53;;;2.70;76.80;;;2.31;69.85;99677.22;5047311;28;20827;-77
2023/02/11 07:51:25;;;;;;;29.73;21.53;;;2.70;76.30;;;1.98;69.85;99666.44;5047018;28;20457;-76
2023/02/11 07:53:52;;;;;;;29.20;19.97;;;2.70;76.40;;;2.32;69.64;99677.13;5077484;28;20503;-76
2023/02/11 07:56:22;;;;;;;26.27;18.80;;;2.70;76.10;;;2.54;69.28;99694.94;5045339;28;20457;-77
2023/02/11 07:58:49;;;;;;;25.87;19.10;;;2.90;76.60;;;2.51;69.09;99673.84;5047901;28;20456;-77
2023/02/11 08:01:21;;;;;;;29.97;21.20;;;3.00;75.70;;;2.69;69.07;99673.31;5042121;28;20472;-78
2023/02/11 08:03:48;;;;;;;28.50;19.53;;;3.20;75.70;;;2.77;68.93;99673.53;5075608;28;20554;-77
2023/02/11 08:06:19;;;;;;;26.47;19.67;;;3.40;75.80;;;3.11;68.09;99708.19;5044416;28;21003;-70
2023/02/11 08:11:48;;;;;;;24.60;17.93;;;3.70;74.50;;;3.28;66.46;99687.25;5041459;28;20540;-71
2023/02/11 08:14:16;;;;;;;27.30;19.17;;;3.90;74.30;;;3.17;65.45;99620.50;5044007;28;20481;-72
2023/02/11 08:16:43;;;;;;;23.03;18.07;;;4.10;74.20;;;3.68;65.21;99686.56;5035695;28;20555;-69
2023/02/11 08:19:14;;;;;;;29.17;19.70;;;4.20;73.60;;;3.85;65.65;99710.19;5031981;28;20455;-70
2023/02/11 08:21:42;;;;;;;25.27;19.40;;;4.20;73.70;;;3.69;65.51;99712.31;5041391;28;20832;-70
2023/02/11 08:24:12;;;;;;;26.20;18.20;;;4.20;73.10;;;3.73;65.11;99693.34;5040320;28;20494;-72
2023/02/11 08:26:40;;;;;;;26.83;17.50;;;4.20;73.00;;;4.00;67.17;99697.31;5041757;28;20544;-71
2023/02/11 08:29:12;;;;;;;23.47;17.70;;;4.30;75.20;;;3.43;66.14;99678.94;5052432;28;20462;-79
2023/02/11 08:31:43;;;;;;;23.23;18.23;;;4.20;72.70;;;3.35;67.18;99643.00;5044606;28;21238;-77
2023/02/11 08:34:13;;;;;;;21.63;16.43;;;4.10;74.40;;;3.43;66.49;99665.56;5048026;28;20515;-79
2023/02/11 08:36:42;;;;;;;24.07;16.73;;;4.10;73.60;;;3.97;64.42;99683.22;5039158;28;20464;-79
2023/02/11 08:39:15;;;;;;;24.00;15.63;;;4.30;73.20;;;3.90;64.99;99684.75;5044344;28;20448;-78
2023/02/11 08:41:43;;;;;;;22.00;16.30;;;4.40;72.80;;;4.02;63.96;99674.81;5046405;28;20474;-78
2023/02/11 08:44:11;;;;;;;25.60;18.20;;;4.50;72.00;;;4.01;64.89;99667.75;5044258;28;20834;-78
2023/02/11 08:46:38;;;;;;;25.50;17.03;;;4.50;72.30;;;4.01;64.40;99682.94;5044145;28;21004;-81
2023/02/11 08:49:06;;;;;;;22.70;17.17;;;4.40;72.30;;;3.62;64.01;99619.41;5047585;28;20459;-84
2023/02/11 08:51:33;;;;;;;21.63;15.27;;;4.50;72.00;;;3.87;64.15;99649.38;5044273;28;20807;-79
2023/02/11 08:54:01;;;;;;;21.00;15.80;;;4.50;71.70;;;4.27;62.55;99694.09;5061185;28;20470;-79
2023/02/11 08:56:32;;;;;;;23.00;16.60;;;4.70;71.30;;;3.89;64.21;99691.06;5045973;28;20477;-84
2023/02/11 08:59:01;;;;;;;21.70;16.40;;;4.60;71.50;;;4.03;64.37;99689.88;5044629;28;20465;-80
2023/02/11 09:01:32;;;;;;;22.60;15.90;;;4.50;71.60;;;4.38;63.11;99695.81;5041356;28;20459;-74
2023/02/11 09:03:59;;;;;;;20.27;15.53;;;4.70;71.60;;;4.22;63.54;99678.44;5039907;28;20473;-73
2023/02/11 09:06:28;;;;;;;22.27;17.90;;;4.80;71.20;;;4.35;63.26;99685.41;5035340;28;20464;-75
2023/02/11 09:08:57;;;;;;;20.50;16.30;;;4.80;71.00;;;4.27;63.01;99687.88;5053085;28;20450;-75
2023/02/11 09:11:29;;;;;;;24.53;15.70;;;4.90;71.00;;;4.27;63.83;99682.53;5058598;28;20468;-73
2023/02/11 09:13:57;;;;;;;22.23;16.80;;;4.80;70.90;;;4.00;62.79;99601.88;5058350;28;20672;-73
2023/02/11 09:16:27;;;;;;;23.07;17.03;;;4.80;71.10;;;4.62;63.08;99670.53;5039137;28;20460;-73
2023/02/11 09:18:57;;;;;;;18.90;15.97;;;5.00;71.20;;;4.64;62.61;99660.56;5040805;28;20457;-75
2023/02/11 09:21:24;;;;;;;23.20;16.13;;;5.10;71.00;;;4.65;63.11;99665.75;5058104;28;20458;-73
2023/02/11 09:23:51;;;;;;;25.00;16.57;;;5.10;70.70;;;4.96;62.60;99662.19;5044175;28;20466;-74
2023/02/11 09:26:21;;;;;;;20.60;16.40;;;5.30;70.60;;;4.66;62.29;99651.38;5046791;28;20706;-73
2023/02/11 09:28:50;;;;;;;27.33;16.57;;;5.20;70.60;;;4.97;62.59;99659.34;5041407;28;20457;-74
2023/02/11 09:31:22;;;;;;;23.73;15.57;;;5.30;70.60;;;5.02;61.45;99661.59;5041166;28;20465;-73
2023/02/11 09:33:52;;;;;;;24.67;16.70;;;5.40;70.30;;;4.89;62.22;99661.03;5044172;28;20517;-72
2023/02/11 09:36:22;;;;;;;21.50;16.20;;;5.40;70.50;;;3.75;64.97;99592.47;5043265;28;20467;-73
2023/02/11 09:38:49;;;;;;;21.83;16.23;;;5.00;71.10;;;4.31;64.61;99681.28;5043304;28;20515;-72
2023/02/11 09:41:41;;;;;;;23.97;17.23;;;4.90;71.60;;;4.51;63.93;99688.41;5043912;28;20921;-71
2023/02/11 09:44:20;;;;;;;18.90;15.20;;;5.00;72.00;;;4.54;64.56;99674.75;5061971;28;20447;-71
2023/02/11 09:46:55;;;;;;;20.73;15.20;;;5.10;71.60;;;5.16;62.76;99695.19;5066172;28;20465;-74
2023/02/11 09:49:31;;;;;;;21.67;15.80;;;5.40;71.60;;;5.45;62.09;99694.34;5062172;28;20436;-73
2023/02/11 09:52:06;;;;;;;23.43;17.00;;;5.80;70.70;;;5.64;61.00;99685.44;5057561;28;20510;-73
2023/02/11 09:54:39;;;;;;;25.50;17.40;;;6.10;70.10;;;5.33;62.38;99690.97;5058167;28;20511;-76
2023/02/11 09:57:09;;;;;;;23.93;17.90;;;6.00;70.10;;;5.02;61.85;99629.44;5060712;28;20469;-73
2023/02/11 09:59:38;;;;;;;23.50;16.00;;;6.00;69.90;;;5.22;62.08;99656.25;5062280;28;20885;-71
2023/02/11 10:02:18;;;;;;;22.53;14.80;;;6.00;70.10;;;5.62;61.83;99690.13;5043657;28;20461;-72
2023/02/11 10:05:21;;;;;;;23.50;15.97;;;6.00;70.10;;;5.09;63.16;99676.16;5043487;28;20463;-72
2023/02/11 10:07:58;;;;;;;20.20;14.80;;;5.80;70.40;;;5.76;62.01;99694.22;5043944;28;20458;-74
2023/02/11 10:10:44;;;;;;;17.80;14.60;;;6.00;70.70;;;6.57;59.25;99675.03;5041396;28;20454;-73
2023/02/11 10:13:35;;;;;;;19.97;15.10;;;6.60;70.40;;;7.35;57.67;99692.53;5043200;28;20445;-74
2023/02/11 10:16:19;;;;;;;20.97;16.53;;;7.30;68.90;;;7.62;55.96;99680.00;5038856;28;20483;-74
2023/02/11 10:19:12;;;;;;;18.60;14.63;;;7.80;67.20;;;7.13;57.85;99691.13;5044744;28;21217;-74
2023/02/11 10:21:50;;;;;;;21.30;15.73;;;7.50;66.70;;;7.38;57.43;99697.59;5040738;28;20468;-77
2023/02/11 10:24:18;;;;;;;22.73;16.70;;;7.60;66.90;;;6.97;57.32;99641.59;5060796;28;20456;-73
2023/02/11 10:26:46;;;;;;;21.63;16.20;;;7.60;66.70;;;7.28;57.73;99695.00;5038323;28;20451;-73
2023/02/11 10:29:31;;;;;;;20.23;15.83;;;7.60;66.90;;;7.58;57.36;99692.06;5044625;28;20461;-72
2023/02/11 10:32:01;;;;;;;18.90;15.27;;;7.70;66.80;;;7.79;57.54;99689.88;5039122;28;20752;-74
2023/02/11 10:34:28;;;;;;;21.63;14.97;;;8.00;67.40;;;7.71;57.68;99687.13;5037151;28;20544;-73
2023/02/11 10:36:56;;;;;;;19.33;15.33;;;8.10;67.30;;;7.55;56.61;99677.09;5044853;28;20456;-72